Time;durP1;ratioP1;P1;durP2;ratioP2;P2;SDS_P1;SDS_P2;PMS_P1;PMS_P2;Temp;Humidity;BMP_temperature;BMP_pressure;BME280_temperature;BME280_humidity;BME280_pressure;Samples;Min_cycle;Max_cycle;Signal;HPM_P1;HPM_P2
2022/03/29 00:01:56;;;;;;;16.25;6.55;;;;;;;;;;5083647;28;20040;-72
2022/03/29 00:04:22;;;;;;;14.85;7.57;;;;;;;;;;5079970;28;20028;-72
2022/03/29 00:06:48;;;;;;;17.02;7.40;;;;;;;;;;5086508;28;20036;-72
2022/03/29 00:09:15;;;;;;;15.82;7.10;;;;;;;;;;5083761;28;20070;-72
2022/03/29 00:11:41;;;;;;;13.05;6.65;;;;;;;;;;5086037;28;20044;-73
2022/03/29 00:14:07;;;;;;;13.02;7.53;;;;;;;;;;5091803;28;20028;-73
2022/03/29 00:16:33;;;;;;;18.77;7.80;;;;;;;;;;5090796;28;20036;-72
2022/03/29 00:18:59;;;;;;;17.52;7.43;;;;;;;;;;5076873;28;20060;-72
2022/03/29 00:21:25;;;;;;;14.38;6.85;;;;;;;;;;5077711;28;20086;-72
2022/03/29 00:23:52;;;;;;;17.05;6.72;;;;;;;;;;5089753;28;20040;-73
2022/03/29 00:26:18;;;;;;;13.38;7.75;;;;;;;;;;5081218;28;20036;-72
2022/03/29 00:28:44;;;;;;;15.77;7.43;;;;;;;;;;5090357;28;20672;-73
2022/03/29 00:31:10;;;;;;;12.93;6.75;;;;;;;;;;5090025;28;20657;-73
2022/03/29 00:33:37;;;;;;;13.65;6.90;;;;;;;;;;5090571;28;20047;-72
2022/03/29 00:36:03;;;;;;;14.35;7.25;;;;;;;;;;5083041;28;20043;-72
2022/03/29 00:38:29;;;;;;;12.85;6.97;;;;;;;;;;5084847;28;20016;-72
2022/03/29 00:40:55;;;;;;;16.60;7.15;;;;;;;;;;5081287;28;20036;-72
2022/03/29 00:43:21;;;;;;;16.02;8.80;;;;;;;;;;5086118;28;20843;-72
2022/03/29 00:45:47;;;;;;;13.57;7.93;;;;;;;;;;5078465;28;20478;-72
2022/03/29 00:48:14;;;;;;;13.18;6.53;;;;;;;;;;5090791;28;20377;-72
2022/03/29 00:50:40;;;;;;;14.85;6.85;;;;;;;;;;5082400;28;20090;-72
2022/03/29 00:53:07;;;;;;;13.50;7.30;;;;;;;;;;5091043;28;20038;-72
2022/03/29 00:55:33;;;;;;;14.02;6.90;;;;;;;;;;5086681;28;20036;-72
2022/03/29 00:58:02;;;;;;;11.00;7.30;;;;;;;;;;5079315;28;20675;-72
2022/03/29 01:00:29;;;;;;;15.98;7.45;;;;;;;;;;5074492;28;20032;-72
2022/03/29 01:02:54;;;;;;;14.55;7.57;;;;;;;;;;5089796;28;20102;-73
2022/03/29 01:05:21;;;;;;;14.50;7.13;;;;;;;;;;5086732;28;20131;-72
2022/03/29 01:07:47;;;;;;;13.57;7.40;;;;;;;;;;5084367;28;20098;-72
2022/03/29 01:10:13;;;;;;;11.40;6.25;;;;;;;;;;5076517;28;20672;-72
2022/03/29 01:12:39;;;;;;;12.52;6.57;;;;;;;;;;5083754;28;20710;-73
2022/03/29 01:15:06;;;;;;;11.95;6.28;;;;;;;;;;5085081;28;20120;-72
2022/03/29 01:17:43;;;;;;;13.23;6.35;;;;;;;;;;5073479;28;20029;-72
2022/03/29 01:20:11;;;;;;;13.57;6.43;;;;;;;;;;5090192;28;20477;-73
2022/03/29 01:22:40;;;;;;;16.95;7.45;;;;;;;;;;5073480;28;20052;-72
2022/03/29 01:25:08;;;;;;;13.18;6.95;;;;;;;;;;5080087;28;20487;-72
2022/03/29 01:27:34;;;;;;;14.73;6.43;;;;;;;;;;5083836;28;20081;-72
2022/03/29 01:30:01;;;;;;;11.68;6.47;;;;;;;;;;5073968;28;20032;-72
2022/03/29 01:32:28;;;;;;;16.52;6.82;;;;;;;;;;5082670;28;20036;-72
2022/03/29 01:34:55;;;;;;;11.57;6.20;;;;;;;;;;5078701;28;20035;-72
2022/03/29 01:37:21;;;;;;;12.52;6.00;;;;;;;;;;5081110;28;20039;-72
2022/03/29 01:39:47;;;;;;;17.40;6.55;;;;;;;;;;5079064;28;20031;-72
2022/03/29 01:42:13;;;;;;;14.27;6.45;;;;;;;;;;5080873;28;20040;-72
2022/03/29 01:44:39;;;;;;;14.20;7.13;;;;;;;;;;5083629;28;20052;-72
2022/03/29 01:47:06;;;;;;;12.65;5.72;;;;;;;;;;5083500;28;20067;-72
2022/03/29 01:49:32;;;;;;;13.90;6.35;;;;;;;;;;5090147;28;20025;-72
2022/03/29 01:51:59;;;;;;;14.20;6.63;;;;;;;;;;5086240;28;20124;-72
2022/03/29 01:54:25;;;;;;;12.63;6.85;;;;;;;;;;5072971;28;20115;-73
2022/03/29 01:56:52;;;;;;;10.93;6.00;;;;;;;;;;5069670;28;20036;-72
2022/03/29 01:59:18;;;;;;;11.50;6.45;;;;;;;;;;5076591;28;20415;-73
2022/03/29 02:01:47;;;;;;;14.00;5.25;;;;;;;;;;5074151;28;20036;-72
2022/03/29 02:04:13;;;;;;;17.13;6.00;;;;;;;;;;5085017;28;20035;-72
2022/03/29 02:06:40;;;;;;;11.40;6.90;;;;;;;;;;5089092;28;20028;-73
2022/03/29 02:09:06;;;;;;;11.32;6.35;;;;;;;;;;5082074;28;20065;-73
2022/03/29 02:11:33;;;;;;;12.82;6.93;;;;;;;;;;5081134;28;20036;-72
2022/03/29 02:13:59;;;;;;;13.30;5.80;;;;;;;;;;5079460;28;20083;-73
2022/03/29 02:16:25;;;;;;;13.23;5.88;;;;;;;;;;5071231;28;20206;-73
2022/03/29 02:18:51;;;;;;;16.08;7.22;;;;;;;;;;5083275;28;20529;-72
2022/03/29 02:21:17;;;;;;;11.55;6.45;;;;;;;;;;5074114;28;20036;-72
2022/03/29 02:23:44;;;;;;;12.65;6.95;;;;;;;;;;5078526;28;20376;-72
2022/03/29 02:26:10;;;;;;;12.43;6.68;;;;;;;;;;5084439;28;20040;-72
2022/03/29 02:28:36;;;;;;;15.38;6.20;;;;;;;;;;5077062;28;20024;-72
2022/03/29 02:31:02;;;;;;;12.52;6.32;;;;;;;;;;5077953;28;20036;-73
2022/03/29 02:33:28;;;;;;;12.52;6.63;;;;;;;;;;5072483;28;20624;-73
2022/03/29 02:35:54;;;;;;;13.65;7.38;;;;;;;;;;5073510;28;20033;-72
2022/03/29 02:38:20;;;;;;;14.80;7.13;;;;;;;;;;5076066;28;20077;-72
2022/03/29 02:40:47;;;;;;;10.73;5.93;;;;;;;;;;5085569;28;20032;-72
2022/03/29 02:43:13;;;;;;;13.63;6.30;;;;;;;;;;5079218;28;20085;-73
2022/03/29 02:45:39;;;;;;;13.40;6.65;;;;;;;;;;5087713;28;20039;-72
2022/03/29 02:48:05;;;;;;;12.75;6.82;;;;;;;;;;5068768;28;20027;-73
2022/03/29 02:50:32;;;;;;;17.50;6.32;;;;;;;;;;5082513;28;20731;-72
2022/03/29 02:52:59;;;;;;;10.15;6.13;;;;;;;;;;5087373;28;20602;-72
2022/03/29 02:55:27;;;;;;;12.52;6.50;;;;;;;;;;5074662;28;20028;-72
2022/03/29 02:57:53;;;;;;;15.07;6.70;;;;;;;;;;5075800;28;20036;-73
2022/03/29 03:00:19;;;;;;;12.18;7.15;;;;;;;;;;5077798;28;20782;-73
2022/03/29 03:02:49;;;;;;;14.38;6.70;;;;;;;;;;5077901;28;20764;-72
2022/03/29 03:05:16;;;;;;;11.20;6.65;;;;;;;;;;5076692;28;20070;-72
2022/03/29 03:07:43;;;;;;;12.07;5.97;;;;;;;;;;5088334;28;20066;-72
2022/03/29 03:10:09;;;;;;;12.57;6.47;;;;;;;;;;5077955;28;20766;-72
2022/03/29 03:12:36;;;;;;;12.35;6.22;;;;;;;;;;5088251;28;20046;-72
2022/03/29 03:15:03;;;;;;;12.10;6.40;;;;;;;;;;5076933;28;20745;-72
2022/03/29 03:17:29;;;;;;;10.82;5.30;;;;;;;;;;5087327;28;20032;-72
2022/03/29 03:19:55;;;;;;;15.07;6.55;;;;;;;;;;5081508;28;20072;-72
2022/03/29 03:22:21;;;;;;;13.32;6.18;;;;;;;;;;5076705;28;20594;-72
2022/03/29 03:24:47;;;;;;;9.73;5.03;;;;;;;;;;5083445;28;20032;-72
2022/03/29 03:27:13;;;;;;;14.48;6.75;;;;;;;;;;5085959;28;20755;-73
2022/03/29 03:29:39;;;;;;;12.15;6.22;;;;;;;;;;5080607;28;20028;-72
2022/03/29 03:32:06;;;;;;;15.77;6.35;;;;;;;;;;5089942;28;20852;-72
2022/03/29 03:34:32;;;;;;;12.10;6.75;;;;;;;;;;5073572;28;20078;-72
2022/03/29 03:36:58;;;;;;;12.23;6.68;;;;;;;;;;5081240;28;20032;-72
2022/03/29 03:39:24;;;;;;;13.43;6.45;;;;;;;;;;5074830;28;20033;-73
2022/03/29 03:41:50;;;;;;;14.65;5.93;;;;;;;;;;5077992;28;20078;-72
2022/03/29 03:44:16;;;;;;;12.85;6.93;;;;;;;;;;5086899;28;20040;-72
2022/03/29 03:46:42;;;;;;;14.30;6.95;;;;;;;;;;5089635;28;20024;-73
2022/03/29 03:49:08;;;;;;;11.40;5.57;;;;;;;;;;5092498;28;20576;-72
2022/03/29 03:51:34;;;;;;;16.08;7.05;;;;;;;;;;5086206;28;20107;-72
2022/03/29 03:54:00;;;;;;;13.18;6.50;;;;;;;;;;5090604;28;20039;-72
2022/03/29 03:56:26;;;;;;;12.45;6.22;;;;;;;;;;5071254;28;20038;-72
2022/03/29 03:58:52;;;;;;;9.73;5.70;;;;;;;;;;5089684;28;20530;-72
2022/03/29 04:01:19;;;;;;;13.10;6.80;;;;;;;;;;5079496;28;20032;-72
2022/03/29 04:03:45;;;;;;;13.52;6.97;;;;;;;;;;5087403;28;20083;-72
2022/03/29 04:06:11;;;;;;;14.40;7.65;;;;;;;;;;5091506;28;20573;-72
2022/03/29 04:08:37;;;;;;;17.92;9.27;;;;;;;;;;5086242;28;20032;-72
2022/03/29 04:11:04;;;;;;;14.90;6.93;;;;;;;;;;5081008;28;20055;-72
2022/03/29 04:13:30;;;;;;;15.75;6.95;;;;;;;;;;5079568;28;20038;-72
2022/03/29 04:15:56;;;;;;;12.38;6.30;;;;;;;;;;5071453;28;20036;-72
2022/03/29 04:18:22;;;;;;;16.52;7.00;;;;;;;;;;5077807;28;20353;-72
2022/03/29 04:20:48;;;;;;;14.77;6.05;;;;;;;;;;5086070;28;20040;-72
2022/03/29 04:23:14;;;;;;;11.32;5.78;;;;;;;;;;5086753;28;20047;-72
2022/03/29 04:25:40;;;;;;;16.60;7.57;;;;;;;;;;5082423;28;20064;-72
2022/03/29 04:28:07;;;;;;;11.90;5.63;;;;;;;;;;5074479;28;20071;-72
2022/03/29 04:30:33;;;;;;;12.93;6.78;;;;;;;;;;5080115;28;20382;-72
2022/03/29 04:32:59;;;;;;;14.15;6.03;;;;;;;;;;5083343;28;20038;-72
2022/03/29 04:35:25;;;;;;;13.77;6.32;;;;;;;;;;5078380;28;20375;-72
2022/03/29 04:37:51;;;;;;;17.95;7.05;;;;;;;;;;5084883;28;20032;-72
2022/03/29 04:40:17;;;;;;;17.27;6.88;;;;;;;;;;5086363;28;20043;-72
2022/03/29 04:42:47;;;;;;;19.88;7.18;;;;;;;;;;5070687;28;20436;-72
2022/03/29 04:45:14;;;;;;;14.32;7.25;;;;;;;;;;5086267;28;20036;-72
2022/03/29 04:47:40;;;;;;;17.45;8.70;;;;;;;;;;5078430;28;20035;-72
2022/03/29 04:50:07;;;;;;;18.48;8.00;;;;;;;;;;5080846;28;20036;-72
2022/03/29 04:52:33;;;;;;;16.85;7.82;;;;;;;;;;5075561;28;20051;-73
2022/03/29 04:54:59;;;;;;;16.65;8.38;;;;;;;;;;5080973;28;20044;-72
2022/03/29 04:57:25;;;;;;;17.73;8.50;;;;;;;;;;5075399;28;20024;-72
2022/03/29 04:59:51;;;;;;;25.45;8.85;;;;;;;;;;5081079;28;20086;-72
2022/03/29 05:02:17;;;;;;;20.83;8.82;;;;;;;;;;5084903;28;20071;-72
2022/03/29 05:04:44;;;;;;;16.23;7.35;;;;;;;;;;5086215;28;20123;-72
2022/03/29 05:07:10;;;;;;;19.05;8.75;;;;;;;;;;5079845;28;20525;-72
2022/03/29 05:09:36;;;;;;;19.58;8.00;;;;;;;;;;5090041;28;20036;-72
2022/03/29 05:12:03;;;;;;;25.85;11.05;;;;;;;;;;5080462;28;20862;-73
2022/03/29 05:14:29;;;;;;;50.67;24.83;;;;;;;;;;5087435;28;20119;-72
2022/03/29 05:16:55;;;;;;;52.45;26.55;;;;;;;;;;5081392;28;20112;-72
2022/03/29 05:19:21;;;;;;;59.40;30.67;;;;;;;;;;5087663;28;20075;-72
2022/03/29 05:21:47;;;;;;;49.35;21.92;;;;;;;;;;5078102;28;20375;-72
2022/03/29 05:24:13;;;;;;;36.72;17.02;;;;;;;;;;5074467;28;20048;-73
2022/03/29 05:26:40;;;;;;;37.88;16.15;;;;;;;;;;5089207;28;20047;-73
2022/03/29 05:29:06;;;;;;;31.80;12.52;;;;;;;;;;5072734;28;20017;-72
2022/03/29 05:31:32;;;;;;;21.77;10.75;;;;;;;;;;5083945;28;20032;-72
2022/03/29 05:33:58;;;;;;;29.33;10.85;;;;;;;;;;5087802;28;20077;-72
2022/03/29 05:36:24;;;;;;;25.63;11.38;;;;;;;;;;5070807;28;20062;-73
2022/03/29 05:38:51;;;;;;;29.65;13.27;;;;;;;;;;5082213;28;20407;-72
2022/03/29 05:41:20;;;;;;;26.27;11.80;;;;;;;;;;5088806;28;20039;-72
2022/03/29 05:43:48;;;;;;;31.23;13.38;;;;;;;;;;5083090;28;20047;-72
2022/03/29 05:48:59;;;;;;;26.88;8.10;;;;;;;;;;5087660;28;20069;-72
2022/03/29 05:51:26;;;;;;;17.98;7.35;;;;;;;;;;5085099;28;20062;-72
2022/03/29 05:53:53;;;;;;;27.23;8.40;;;;;;;;;;5074638;28;20028;-72
2022/03/29 05:56:19;;;;;;;24.33;8.02;;;;;;;;;;5085562;28;20490;-72
2022/03/29 05:58:45;;;;;;;25.77;8.02;;;;;;;;;;5069503;28;20102;-73
2022/03/29 06:01:11;;;;;;;12.07;5.57;;;;;;;;;;5085319;28;20044;-72
2022/03/29 06:03:37;;;;;;;11.90;5.30;;;;;;;;;;5089707;28;20024;-72
2022/03/29 06:06:03;;;;;;;10.35;4.78;;;;;;;;;;5077147;28;20029;-72
2022/03/29 06:08:29;;;;;;;14.02;5.88;;;;;;;;;;5069171;28;20050;-72
2022/03/29 06:10:56;;;;;;;20.90;7.13;;;;;;;;;;5077695;28;20031;-73
2022/03/29 06:13:22;;;;;;;29.38;8.18;;;;;;;;;;5074008;28;20063;-72
2022/03/29 06:15:48;;;;;;;25.45;7.53;;;;;;;;;;5086800;28;20040;-72
2022/03/29 06:18:14;;;;;;;28.98;8.30;;;;;;;;;;5081328;28;20475;-73
2022/03/29 06:20:40;;;;;;;21.95;7.82;;;;;;;;;;5084530;28;20046;-73
2022/03/29 06:23:06;;;;;;;17.17;6.47;;;;;;;;;;5085778;28;20048;-73
2022/03/29 06:25:32;;;;;;;24.90;7.32;;;;;;;;;;5087263;28;20082;-73
2022/03/29 06:27:58;;;;;;;20.58;8.18;;;;;;;;;;5088724;28;20050;-72
2022/03/29 06:30:24;;;;;;;16.10;5.80;;;;;;;;;;5080268;28;20518;-73
2022/03/29 06:32:52;;;;;;;20.27;5.97;;;;;;;;;;5078889;28;20031;-72
2022/03/29 06:35:21;;;;;;;15.30;4.85;;;;;;;;;;5080260;28;20036;-73
2022/03/29 06:37:48;;;;;;;13.77;6.18;;;;;;;;;;5080743;28;20082;-72
2022/03/29 06:40:14;;;;;;;21.55;8.07;;;;;;;;;;5079234;28;20028;-72
2022/03/29 06:42:40;;;;;;;29.52;8.40;;;;;;;;;;5082462;28;20030;-72
2022/03/29 06:45:08;;;;;;;20.70;8.38;;;;;;;;;;5088484;28;20059;-72
2022/03/29 06:47:34;;;;;;;13.45;6.00;;;;;;;;;;5084213;28;20020;-72
2022/03/29 06:50:00;;;;;;;17.02;6.57;;;;;;;;;;5072910;28;20034;-73
2022/03/29 06:52:28;;;;;;;18.73;7.10;;;;;;;;;;5087612;28;20063;-73
2022/03/29 06:54:54;;;;;;;21.48;6.90;;;;;;;;;;5087208;28;20142;-73
2022/03/29 06:57:20;;;;;;;14.40;7.25;;;;;;;;;;5085237;28;20020;-72
2022/03/29 06:59:46;;;;;;;14.40;6.95;;;;;;;;;;5087661;28;20081;-72
2022/03/29 07:02:13;;;;;;;18.30;7.88;;;;;;;;;;5086403;28;20109;-72
2022/03/29 07:04:39;;;;;;;18.42;7.20;;;;;;;;;;5087487;28;20032;-73
2022/03/29 07:07:05;;;;;;;16.77;6.82;;;;;;;;;;5084472;28;20036;-73
2022/03/29 07:12:17;;;;;;;14.05;6.10;;;;;;;;;;5083514;28;20094;-72
2022/03/29 07:14:43;;;;;;;13.82;6.70;;;;;;;;;;5080829;28;20032;-73
2022/03/29 07:17:13;;;;;;;19.73;5.78;;;;;;;;;;5084834;28;20524;-73
2022/03/29 07:19:39;;;;;;;33.08;6.47;;;;;;;;;;5083719;28;20042;-73
2022/03/29 07:22:05;;;;;;;13.60;6.55;;;;;;;;;;5080962;28;20390;-73
2022/03/29 07:24:31;;;;;;;18.17;6.28;;;;;;;;;;5079731;28;20056;-73
2022/03/29 07:26:57;;;;;;;14.57;6.40;;;;;;;;;;5084595;28;20028;-73
2022/03/29 07:29:25;;;;;;;13.50;6.10;;;;;;;;;;5085951;28;20032;-73
2022/03/29 07:31:51;;;;;;;17.55;7.53;;;;;;;;;;5086775;28;20028;-73
2022/03/29 07:34:17;;;;;;;12.95;7.30;;;;;;;;;;5080330;28;20040;-74
2022/03/29 07:36:44;;;;;;;15.55;6.75;;;;;;;;;;5085731;28;20455;-73
2022/03/29 07:39:10;;;;;;;12.45;5.28;;;;;;;;;;5085635;28;20047;-73
2022/03/29 07:41:36;;;;;;;14.80;6.95;;;;;;;;;;5086173;28;20032;-73
2022/03/29 07:44:02;;;;;;;15.88;6.97;;;;;;;;;;5071756;28;20372;-73
2022/03/29 07:46:28;;;;;;;14.80;6.32;;;;;;;;;;5080020;28;20359;-73
2022/03/29 07:48:55;;;;;;;12.77;6.05;;;;;;;;;;5082547;28;20056;-73
2022/03/29 07:51:21;;;;;;;16.35;6.35;;;;;;;;;;5076538;28;20086;-73
2022/03/29 07:53:47;;;;;;;11.32;5.53;;;;;;;;;;5081314;28;20088;-73
2022/03/29 07:56:13;;;;;;;17.23;6.20;;;;;;;;;;5082949;28;20581;-73
2022/03/29 07:58:40;;;;;;;18.45;6.45;;;;;;;;;;5086933;28;20042;-73
2022/03/29 08:01:06;;;;;;;10.85;6.38;;;;;;;;;;5081879;28;20103;-73
2022/03/29 08:03:33;;;;;;;14.23;6.63;;;;;;;;;;5084608;28;20466;-73
2022/03/29 08:06:00;;;;;;;13.10;6.25;;;;;;;;;;5085005;28;20028;-73
2022/03/29 08:08:26;;;;;;;17.63;6.40;;;;;;;;;;5088510;28;20036;-73
2022/03/29 08:10:52;;;;;;;13.95;6.82;;;;;;;;;;5090475;28;20031;-73
2022/03/29 08:13:20;;;;;;;13.65;5.82;;;;;;;;;;5085572;28;20032;-73
2022/03/29 08:15:47;;;;;;;13.10;6.03;;;;;;;;;;5087375;28;20066;-73
2022/03/29 08:18:13;;;;;;;13.38;6.00;;;;;;;;;;5088996;28;20031;-73
2022/03/29 08:20:40;;;;;;;20.83;7.25;;;;;;;;;;5087477;28;20084;-73
2022/03/29 08:23:07;;;;;;;13.65;5.60;;;;;;;;;;5090849;28;20562;-73
2022/03/29 08:25:35;;;;;;;12.90;5.50;;;;;;;;;;5091242;28;20028;-73
2022/03/29 08:28:02;;;;;;;12.60;6.30;;;;;;;;;;5079060;28;20063;-73
2022/03/29 08:30:29;;;;;;;13.52;6.50;;;;;;;;;;5090973;28;20121;-74
2022/03/29 08:32:57;;;;;;;14.77;5.70;;;;;;;;;;5080397;28;20051;-73
2022/03/29 08:35:24;;;;;;;16.70;5.78;;;;;;;;;;5089023;28;20024;-74
2022/03/29 08:37:50;;;;;;;11.82;6.13;;;;;;;;;;5090704;28;20028;-73
2022/03/29 08:40:17;;;;;;;18.10;6.30;;;;;;;;;;5088734;28;20398;-73
2022/03/29 08:42:44;;;;;;;17.13;6.85;;;;;;;;;;5090388;28;20055;-74
2022/03/29 08:45:11;;;;;;;11.35;5.72;;;;;;;;;;5087192;28;20024;-73
2022/03/29 08:47:37;;;;;;;9.88;5.65;;;;;;;;;;5090635;28;20043;-73
2022/03/29 08:50:05;;;;;;;14.10;6.05;;;;;;;;;;5083362;28;20028;-73
2022/03/29 08:52:31;;;;;;;12.35;6.00;;;;;;;;;;5090192;28;20042;-74
2022/03/29 08:54:57;;;;;;;17.73;6.25;;;;;;;;;;5085927;28;20923;-73
2022/03/29 08:57:23;;;;;;;23.35;6.00;;;;;;;;;;5080877;28;20028;-73
2022/03/29 08:59:49;;;;;;;15.90;6.22;;;;;;;;;;5087549;28;20031;-73
2022/03/29 09:02:16;;;;;;;15.40;6.07;;;;;;;;;;5089568;28;20043;-73
2022/03/29 09:04:43;;;;;;;16.30;5.90;;;;;;;;;;5084823;28;20036;-73
2022/03/29 09:07:09;;;;;;;12.23;5.90;;;;;;;;;;5087572;28;20501;-73
2022/03/29 09:09:40;;;;;;;18.45;6.25;;;;;;;;;;5070352;28;20522;-74
2022/03/29 09:12:13;;;;;;;15.82;5.97;;;;;;;;;;5081962;28;20028;-73
2022/03/29 09:14:51;;;;;;;14.25;5.88;;;;;;;;;;5090070;28;20032;-74
2022/03/29 09:17:31;;;;;;;16.35;6.10;;;;;;;;;;5088134;28;20038;-73
2022/03/29 09:20:02;;;;;;;11.90;6.10;;;;;;;;;;5087488;28;20115;-73
2022/03/29 09:22:47;;;;;;;19.33;6.88;;;;;;;;;;5083646;28;20130;-73
2022/03/29 09:25:16;;;;;;;11.15;5.78;;;;;;;;;;5077344;28;20115;-73
2022/03/29 09:28:01;;;;;;;14.27;6.32;;;;;;;;;;5088041;28;20454;-73
2022/03/29 09:30:40;;;;;;;14.18;5.68;;;;;;;;;;5082669;28;20066;-74
2022/03/29 09:33:06;;;;;;;14.68;6.80;;;;;;;;;;5082730;28;20033;-73
2022/03/29 09:35:33;;;;;;;14.57;6.15;;;;;;;;;;5089909;28;20031;-73
2022/03/29 09:38:01;;;;;;;12.70;5.50;;;;;;;;;;5078771;28;20393;-73
2022/03/29 09:40:38;;;;;;;18.60;5.97;;;;;;;;;;5085662;28;20039;-73
2022/03/29 09:43:10;;;;;;;14.93;6.45;;;;;;;;;;5082413;28;20036;-73
2022/03/29 09:45:39;;;;;;;16.35;6.13;;;;;;;;;;5080585;28;20371;-73
2022/03/29 09:48:24;;;;;;;17.35;6.57;;;;;;;;;;5084163;28;20154;-73
2022/03/29 09:50:53;;;;;;;14.82;6.30;;;;;;;;;;5085283;28;20031;-73
2022/03/29 09:53:38;;;;;;;14.45;6.22;;;;;;;;;;5088057;28;20028;-73
2022/03/29 09:56:05;;;;;;;18.25;6.18;;;;;;;;;;5085971;28;20089;-73
2022/03/29 09:58:31;;;;;;;9.95;5.28;;;;;;;;;;5087899;28;20126;-73
2022/03/29 10:00:57;;;;;;;13.50;5.35;;;;;;;;;;5085736;28;20028;-73
2022/03/29 10:03:27;;;;;;;16.35;5.60;;;;;;;;;;5080230;28;20049;-73
2022/03/29 10:06:01;;;;;;;15.57;6.68;;;;;;;;;;5087971;28;20031;-73
2022/03/29 10:11:16;;;;;;;13.38;6.50;;;;;;;;;;5077814;28;20047;-73
2022/03/29 10:13:42;;;;;;;15.38;6.10;;;;;;;;;;5081613;28;20028;-73
2022/03/29 10:16:13;;;;;;;13.82;5.78;;;;;;;;;;5084972;28;20067;-74
2022/03/29 10:18:40;;;;;;;12.88;6.43;;;;;;;;;;5081846;28;20413;-73
2022/03/29 10:21:09;;;;;;;11.70;6.05;;;;;;;;;;5088573;28;20714;-73
2022/03/29 10:23:36;;;;;;;12.88;5.90;;;;;;;;;;5081469;28;20127;-73
2022/03/29 10:26:03;;;;;;;21.08;6.60;;;;;;;;;;5076091;28;20039;-73
2022/03/29 10:28:29;;;;;;;14.52;6.82;;;;;;;;;;5081623;28;20059;-73
2022/03/29 10:30:56;;;;;;;12.40;6.32;;;;;;;;;;5088210;28;20062;-73
2022/03/29 10:33:23;;;;;;;13.65;6.50;;;;;;;;;;5081903;28;20402;-74
2022/03/29 10:36:05;;;;;;;16.40;6.35;;;;;;;;;;5083732;28;20361;-73
2022/03/29 10:38:46;;;;;;;17.65;7.15;;;;;;;;;;5083369;28;20103;-74
2022/03/29 10:41:30;;;;;;;12.57;6.75;;;;;;;;;;5077495;28;20125;-74
2022/03/29 10:44:11;;;;;;;21.25;6.50;;;;;;;;;;5082495;28;20051;-73
2022/03/29 10:46:37;;;;;;;16.15;6.53;;;;;;;;;;5077197;28;20093;-73
2022/03/29 10:49:24;;;;;;;14.77;6.45;;;;;;;;;;5083176;28;20036;-73
2022/03/29 10:51:53;;;;;;;11.82;6.30;;;;;;;;;;5070741;28;20029;-73
2022/03/29 10:54:41;;;;;;;15.25;5.97;;;;;;;;;;5073650;28;20475;-73
2022/03/29 10:57:08;;;;;;;16.50;6.72;;;;;;;;;;5084114;28;20054;-73
2022/03/29 10:59:36;;;;;;;19.00;6.80;;;;;;;;;;5083342;28;20040;-73
2022/03/29 11:02:13;;;;;;;10.70;5.93;;;;;;;;;;5083202;28;20038;-74
2022/03/29 11:04:58;;;;;;;12.75;6.35;;;;;;;;;;5077181;28;20506;-73
2022/03/29 11:07:24;;;;;;;10.57;6.35;;;;;;;;;;5086000;28;20036;-73
2022/03/29 11:10:06;;;;;;;11.77;6.82;;;;;;;;;;5079938;28;20075;-73
2022/03/29 11:12:37;;;;;;;14.02;6.35;;;;;;;;;;5087257;28;20067;-73
2022/03/29 11:15:23;;;;;;;17.77;6.45;;;;;;;;;;5084630;28;20081;-73
2022/03/29 11:17:49;;;;;;;13.30;5.93;;;;;;;;;;5086473;28;20454;-73
2022/03/29 11:20:34;;;;;;;13.25;5.80;;;;;;;;;;5082310;28;20035;-73
2022/03/29 11:23:01;;;;;;;17.48;7.03;;;;;;;;;;5086404;28;20032;-74
2022/03/29 11:25:27;;;;;;;14.88;6.10;;;;;;;;;;5075631;28;20055;-73
2022/03/29 11:27:54;;;;;;;17.80;5.70;;;;;;;;;;5086518;28;20062;-73
2022/03/29 11:30:20;;;;;;;15.07;6.53;;;;;;;;;;5079796;28;20024;-73
2022/03/29 11:32:47;;;;;;;15.18;6.50;;;;;;;;;;5078497;28;20028;-73
2022/03/29 11:35:18;;;;;;;17.50;6.95;;;;;;;;;;5086404;28;20032;-73
2022/03/29 11:37:45;;;;;;;19.77;6.90;;;;;;;;;;5068828;28;20120;-73
2022/03/29 11:40:15;;;;;;;16.80;6.70;;;;;;;;;;5079544;28;20040;-73
2022/03/29 11:42:49;;;;;;;15.55;7.00;;;;;;;;;;5087816;28;20032;-74
2022/03/29 11:45:15;;;;;;;17.77;6.57;;;;;;;;;;5083324;28;20043;-73
2022/03/29 11:47:51;;;;;;;15.48;6.38;;;;;;;;;;5090839;28;20036;-74
2022/03/29 11:50:28;;;;;;;22.17;6.65;;;;;;;;;;5089633;28;20651;-73
2022/03/29 11:52:54;;;;;;;18.20;6.45;;;;;;;;;;5084637;28;20063;-73
2022/03/29 11:55:20;;;;;;;16.08;6.28;;;;;;;;;;5085821;28;20071;-73
2022/03/29 11:57:46;;;;;;;22.48;7.13;;;;;;;;;;5088253;28;20583;-73
2022/03/29 12:00:27;;;;;;;20.58;6.68;;;;;;;;;;5091641;28;20387;-73
2022/03/29 12:02:53;;;;;;;22.05;7.25;;;;;;;;;;5081890;28;20054;-73
2022/03/29 12:05:23;;;;;;;27.17;6.43;;;;;;;;;;5081544;28;20459;-73
2022/03/29 12:07:55;;;;;;;24.23;7.78;;;;;;;;;;5083326;28;20028;-73
2022/03/29 12:10:21;;;;;;;;;;;;;;;;;;5085296;28;20128;-73
2022/03/29 12:12:51;;;;;;;29.35;8.13;;;;;;;;;;5089787;28;20448;-73
2022/03/29 12:15:20;;;;;;;20.42;6.88;;;;;;;;;;5091124;28;20067;-73
2022/03/29 12:20:44;;;;;;;18.08;6.50;;;;;;;;;;5087501;28;20661;-74
2022/03/29 12:23:17;;;;;;;20.63;6.45;;;;;;;;;;5086360;28;20542;-73
2022/03/29 12:25:44;;;;;;;19.20;6.90;;;;;;;;;;5085572;28;20044;-73
2022/03/29 12:28:10;;;;;;;21.70;7.30;;;;;;;;;;5077628;28;20367;-73
2022/03/29 12:30:36;;;;;;;22.92;6.30;;;;;;;;;;5086276;28;20069;-74
2022/03/29 12:33:02;;;;;;;18.55;6.68;;;;;;;;;;5082353;28;20094;-73
2022/03/29 12:35:30;;;;;;;13.75;6.50;;;;;;;;;;5081276;28;20155;-73
2022/03/29 12:38:03;;;;;;;24.30;6.95;;;;;;;;;;5080271;28;20039;-73
2022/03/29 12:40:29;;;;;;;22.33;7.30;;;;;;;;;;5084182;28;20753;-73
2022/03/29 12:43:02;;;;;;;19.33;6.68;;;;;;;;;;5081920;28;20028;-73
2022/03/29 12:45:28;;;;;;;26.15;7.32;;;;;;;;;;5082911;28;20044;-73
2022/03/29 12:47:55;;;;;;;23.00;6.15;;;;;;;;;;5084969;28;20403;-73
2022/03/29 12:50:22;;;;;;;20.92;5.95;;;;;;;;;;5079771;28;20033;-73
2022/03/29 12:52:49;;;;;;;28.30;7.03;;;;;;;;;;5087680;28;20032;-73
2022/03/29 12:55:18;;;;;;;17.70;6.10;;;;;;;;;;5087915;28;20050;-73
2022/03/29 12:57:45;;;;;;;21.45;7.53;;;;;;;;;;5086105;28;20028;-73
2022/03/29 13:00:19;;;;;;;21.98;7.45;;;;;;;;;;5088729;28;20043;-73
2022/03/29 13:02:48;;;;;;;24.70;7.55;;;;;;;;;;5087088;28;20394;-73
2022/03/29 13:05:16;;;;;;;20.42;6.63;;;;;;;;;;5084095;28;20039;-73
2022/03/29 13:07:59;;;;;;;16.80;6.53;;;;;;;;;;5084808;28;20538;-73
2022/03/29 13:10:26;;;;;;;18.73;6.63;;;;;;;;;;5087094;28;20028;-73
2022/03/29 13:13:08;;;;;;;24.67;6.68;;;;;;;;;;5082077;28;20067;-73
2022/03/29 13:15:43;;;;;;;22.63;6.95;;;;;;;;;;5078009;28;20028;-73
2022/03/29 13:18:18;;;;;;;29.70;5.90;;;;;;;;;;5082728;28;20102;-73
2022/03/29 13:20:45;;;;;;;19.25;6.15;;;;;;;;;;5084205;28;20036;-73
2022/03/29 13:23:11;;;;;;;28.10;6.97;;;;;;;;;;5084036;28;20487;-73
2022/03/29 13:25:37;;;;;;;27.98;6.43;;;;;;;;;;5078176;28;20382;-73
2022/03/29 13:28:04;;;;;;;26.92;7.07;;;;;;;;;;5088614;28;20035;-73
2022/03/29 13:30:30;;;;;;;22.45;5.90;;;;;;;;;;5088159;28;20084;-73
2022/03/29 13:32:57;;;;;;;31.33;7.85;;;;;;;;;;5086473;28;20462;-73
2022/03/29 13:35:23;;;;;;;26.80;8.23;;;;;;;;;;5080730;28;20048;-73
2022/03/29 13:37:49;;;;;;;28.75;8.07;;;;;;;;;;5084366;28;20035;-73
2022/03/29 13:40:15;;;;;;;27.10;6.93;;;;;;;;;;5089164;28;20036;-73
2022/03/29 13:42:42;;;;;;;25.52;6.30;;;;;;;;;;5086634;28;20857;-73
2022/03/29 13:45:08;;;;;;;31.92;7.75;;;;;;;;;;5086428;28;20613;-73
2022/03/29 13:47:39;;;;;;;28.63;7.00;;;;;;;;;;5078320;28;20378;-73
2022/03/29 13:50:05;;;;;;;27.35;7.82;;;;;;;;;;5076546;28;20031;-73
2022/03/29 13:52:34;;;;;;;29.98;8.55;;;;;;;;;;5088330;28;20028;-73
2022/03/29 13:55:00;;;;;;;29.20;8.20;;;;;;;;;;5081507;28;20726;-73
2022/03/29 13:57:26;;;;;;;26.02;8.05;;;;;;;;;;5087842;28;20802;-73
2022/03/29 13:59:53;;;;;;;26.95;8.40;;;;;;;;;;5081958;28;20463;-73
2022/03/29 14:02:20;;;;;;;29.13;8.02;;;;;;;;;;5087848;28;20036;-74
2022/03/29 14:04:46;;;;;;;30.65;8.23;;;;;;;;;;5083728;28;20069;-73
2022/03/29 14:07:12;;;;;;;32.08;7.70;;;;;;;;;;5085687;28;20028;-73
2022/03/29 14:09:38;;;;;;;30.50;7.43;;;;;;;;;;5076606;28;20036;-73
2022/03/29 14:12:04;;;;;;;26.60;7.60;;;;;;;;;;5080778;28;20098;-73
2022/03/29 14:14:30;;;;;;;26.17;8.27;;;;;;;;;;5079840;28;20033;-73
2022/03/29 14:16:57;;;;;;;32.17;7.63;;;;;;;;;;5084410;28;20078;-73
2022/03/29 14:19:23;;;;;;;26.23;6.88;;;;;;;;;;5080788;28;20158;-73
2022/03/29 14:21:49;;;;;;;31.48;7.72;;;;;;;;;;5080701;28;20043;-73
2022/03/29 14:24:15;;;;;;;30.52;7.53;;;;;;;;;;5077135;28;20044;-73
2022/03/29 14:26:41;;;;;;;37.03;7.85;;;;;;;;;;5085609;28;20032;-73
2022/03/29 14:29:07;;;;;;;28.02;7.20;;;;;;;;;;5083392;28;20032;-73
2022/03/29 14:31:33;;;;;;;25.17;7.75;;;;;;;;;;5083784;28;20090;-73
2022/03/29 14:34:00;;;;;;;28.02;6.45;;;;;;;;;;5079622;28;20035;-73
2022/03/29 14:36:26;;;;;;;35.63;8.95;;;;;;;;;;5079224;28;20036;-73
2022/03/29 14:38:52;;;;;;;41.28;8.00;;;;;;;;;;5084433;28;20043;-73
2022/03/29 14:41:20;;;;;;;33.95;8.13;;;;;;;;;;5086682;28;20039;-73
2022/03/29 14:43:47;;;;;;;27.77;6.97;;;;;;;;;;5077783;28;20123;-73
2022/03/29 14:46:13;;;;;;;21.30;7.28;;;;;;;;;;5081466;28;20753;-73